Time;durP1;ratioP1;P1;durP2;ratioP2;P2;SDS_P1;SDS_P2;PMS_P1;PMS_P2;Temp;Humidity;BMP_temperature;BMP_pressure;BME280_temperature;BME280_humidity;BME280_pressure;Samples;Min_cycle;Max_cycle;Signal;HPM_P1;HPM_P2
2024/01/17 00:01:54;;;;;;;28.27;25.75;;;7.80;1.00;;;;;;5027185;28;20128;-66
2024/01/17 00:04:20;;;;;;;31.92;28.55;;;7.60;1.00;;;;;;5027728;28;20057;-66
2024/01/17 00:06:45;;;;;;;31.33;28.15;;;7.50;1.00;;;;;;5026921;28;20053;-66
2024/01/17 00:09:12;;;;;;;30.50;27.55;;;7.30;1.00;;;;;;5028195;28;20148;-66
2024/01/17 00:11:37;;;;;;;32.63;29.63;;;7.60;1.00;;;;;;5026855;28;20029;-65
2024/01/17 00:14:03;;;;;;;32.60;29.73;;;7.60;1.00;;;;;;5009504;28;20037;-66
2024/01/17 00:16:28;;;;;;;34.28;30.88;;;7.70;1.00;;;;;;5027032;28;20471;-65
2024/01/17 00:18:55;;;;;;;35.80;32.30;;;7.90;4.30;;;;;;5026122;28;20041;-66
2024/01/17 00:21:20;;;;;;;34.42;31.10;;;8.00;4.30;;;;;;5027540;28;20045;-65
2024/01/17 00:23:46;;;;;;;35.20;31.50;;;7.70;1.00;;;;;;5009131;28;20430;-66
2024/01/17 00:26:12;;;;;;;32.63;29.60;;;8.00;1.00;;;;;;5024693;28;20481;-66
2024/01/17 00:28:37;;;;;;;32.90;29.90;;;7.50;1.00;;;;;;5008833;28;20419;-66
2024/01/17 00:31:03;;;;;;;33.03;29.98;;;7.70;1.00;;;;;;5027947;28;20568;-65
2024/01/17 00:33:28;;;;;;;30.65;27.80;;;7.70;1.80;;;;;;5009772;28;20088;-66
2024/01/17 00:35:54;;;;;;;33.08;30.00;;;7.50;1.00;;;;;;5022745;28;20079;-66
2024/01/17 00:38:19;;;;;;;30.33;27.70;;;7.40;1.00;;;;;;5016900;28;20041;-66
2024/01/17 00:40:45;;;;;;;32.40;29.42;;;7.60;1.00;;;;;;5027318;28;20569;-66
2024/01/17 00:43:11;;;;;;;34.38;30.85;;;7.40;1.10;;;;;;5026971;28;20505;-66
2024/01/17 00:45:36;;;;;;;32.67;29.48;;;7.40;2.20;;;;;;5025231;28;20045;-66
2024/01/17 00:48:03;;;;;;;33.88;30.38;;;7.60;5.50;;;;;;5026107;28;20049;-66
2024/01/17 00:50:28;;;;;;;35.33;31.70;;;7.50;3.60;;;;;;5009012;28;20045;-66
2024/01/17 00:52:54;;;;;;;33.75;30.15;;;7.30;7.60;;;;;;4992583;28;20049;-65
2024/01/17 00:55:20;;;;;;;36.83;32.05;;;7.80;7.20;;;;;;5008051;28;20561;-66
2024/01/17 00:57:46;;;;;;;35.75;32.15;;;7.60;13.00;;;;;;5026203;28;20053;-66
2024/01/17 01:00:11;;;;;;;35.72;32.33;;;7.50;10.60;;;;;;5026358;28;20128;-66
2024/01/17 01:02:37;;;;;;;35.60;30.17;;;7.50;16.40;;;;;;5008389;28;20052;-66
2024/01/17 01:05:03;;;;;;;39.50;35.33;;;7.70;18.40;;;;;;5024996;28;20037;-66
2024/01/17 01:07:29;;;;;;;35.33;31.63;;;7.50;17.50;;;;;;4997900;28;20053;-66
2024/01/17 01:09:55;;;;;;;38.03;34.10;;;7.50;18.00;;;;;;5026306;28;20053;-66
2024/01/17 01:12:20;;;;;;;45.22;33.88;;;7.40;18.40;;;;;;5026698;28;20042;-66
2024/01/17 01:14:46;;;;;;;35.28;31.55;;;7.40;21.10;;;;;;5007699;28;20045;-66
2024/01/17 01:17:11;;;;;;;38.90;34.78;;;7.50;29.20;;;;;;5025938;28;20049;-66
2024/01/17 01:19:37;;;;;;;36.00;32.42;;;7.60;32.90;;;;;;5007649;28;20372;-66
2024/01/17 01:22:02;;;;;;;37.80;32.75;;;7.50;26.00;;;;;;5025652;28;20045;-66
2024/01/17 01:24:28;;;;;;;38.58;34.40;;;7.40;25.90;;;;;;5006255;28;20045;-66
2024/01/17 01:26:53;;;;;;;37.10;33.60;;;7.30;22.40;;;;;;5023265;28;20064;-66
2024/01/17 01:29:19;;;;;;;36.97;33.33;;;7.40;25.60;;;;;;5025701;28;20131;-66
2024/01/17 01:31:45;;;;;;;39.05;35.08;;;7.50;25.70;;;;;;5008563;28;20050;-65
2024/01/17 01:34:10;;;;;;;39.88;35.70;;;7.30;29.20;;;;;;5008431;28;20124;-65
2024/01/17 01:36:36;;;;;;;36.50;32.70;;;7.30;29.20;;;;;;5004699;28;20091;-66
2024/01/17 01:39:01;;;;;;;39.63;35.72;;;7.30;30.10;;;;;;5025950;28;20111;-66
2024/01/17 01:41:27;;;;;;;40.03;35.88;;;7.60;34.00;;;;;;5026806;28;20056;-66
2024/01/17 01:43:52;;;;;;;41.25;37.28;;;7.60;36.60;;;;;;5004809;28;20575;-66
2024/01/17 01:46:23;;;;;;;37.92;34.42;;;7.60;39.60;;;;;;5005973;28;20468;-66
2024/01/17 01:48:50;;;;;;;38.08;34.33;;;7.40;43.10;;;;;;4988024;28;20045;-66
2024/01/17 01:51:16;;;;;;;36.95;33.47;;;7.50;44.00;;;;;;5006120;28;20049;-65
2024/01/17 01:53:44;;;;;;;39.15;35.40;;;7.70;55.90;;;;;;4991964;28;20084;-65
2024/01/17 01:56:12;;;;;;;38.47;34.25;;;7.60;60.90;;;;;;5001128;28;20045;-65
2024/01/17 01:58:40;;;;;;;39.75;35.47;;;7.50;51.30;;;;;;5004478;28;20041;-65
2024/01/17 02:01:07;;;;;;;38.63;35.13;;;7.40;58.60;;;;;;4998980;28;20041;-65
2024/01/17 02:03:33;;;;;;;40.60;36.75;;;7.50;51.70;;;;;;5002987;28;20052;-65
2024/01/17 02:06:00;;;;;;;38.05;34.00;;;7.60;51.10;;;;;;5001377;28;20088;-65
2024/01/17 02:08:27;;;;;;;38.80;33.95;;;7.60;49.20;;;;;;5003560;28;20065;-65
2024/01/17 02:10:52;;;;;;;38.70;35.05;;;7.50;44.20;;;;;;4982533;28;20080;-65
2024/01/17 02:13:19;;;;;;;40.20;36.28;;;7.40;49.00;;;;;;4992853;28;20057;-65
2024/01/17 02:15:44;;;;;;;41.33;37.15;;;7.40;51.70;;;;;;5004027;28;20046;-65
2024/01/17 02:18:10;;;;;;;38.42;34.58;;;7.60;62.90;;;;;;5003414;28;20104;-65
2024/01/17 02:20:37;;;;;;;42.03;37.97;;;7.70;84.10;;;;;;4996769;28;20054;-65
2024/01/17 02:23:30;;;;;;;39.67;35.35;;;7.50;65.80;;;;;;5004823;28;20595;-65
2024/01/17 02:25:57;;;;;;;43.92;39.50;;;7.60;64.60;;;;;;4983271;28;20046;-65
2024/01/17 02:28:24;;;;;;;43.15;39.05;;;7.50;68.20;;;;;;5001823;28;20050;-65
2024/01/17 02:30:51;;;;;;;43.45;39.00;;;7.70;65.60;;;;;;4998819;28;20124;-65
2024/01/17 02:33:16;;;;;;;44.40;39.90;;;7.70;66.60;;;;;;5003417;28;20038;-65
2024/01/17 02:35:42;;;;;;;46.58;41.80;;;7.40;68.10;;;;;;5000686;28;20045;-65
2024/01/17 02:38:08;;;;;;;49.20;43.72;;;7.50;71.80;;;;;;5001127;28;20510;-65
2024/01/17 02:40:34;;;;;;;44.72;40.35;;;7.70;76.20;;;;;;4999250;28;20499;-65
2024/01/17 02:42:59;;;;;;;46.33;41.72;;;7.70;76.90;;;;;;5008088;28;20421;-65
2024/01/17 02:45:25;;;;;;;44.45;40.35;;;7.70;76.70;;;;;;5020656;28;20060;-65
2024/01/17 02:47:51;;;;;;;44.65;40.42;;;7.40;80.50;;;;;;5004273;28;20041;-65
2024/01/17 02:50:17;;;;;;;47.75;43.13;;;7.70;81.40;;;;;;5001550;28;20046;-65
2024/01/17 02:52:43;;;;;;;60.55;37.63;;;7.70;85.90;;;;;;4996755;28;20448;-65
2024/01/17 02:55:11;;;;;;;42.58;38.22;;;7.80;99.90;;;;;;5023032;28;20121;-65
2024/01/17 02:57:38;;;;;;;42.53;38.53;;;7.90;97.60;;;;;;4988935;28;20479;-65
2024/01/17 03:00:05;;;;;;;44.97;40.33;;;7.50;93.90;;;;;;5001883;28;20487;-65
2024/01/17 03:02:31;;;;;;;48.08;43.22;;;7.50;92.80;;;;;;5020776;28;20069;-65
2024/01/17 03:04:57;;;;;;;49.80;41.90;;;7.70;92.00;;;;;;5001803;28;20172;-65
2024/01/17 03:07:22;;;;;;;42.95;38.60;;;7.50;88.50;;;;;;5002174;28;20614;-65
2024/01/17 03:09:48;;;;;;;41.13;36.70;;;7.60;87.90;;;;;;5019827;28;20050;-65
2024/01/17 03:12:14;;;;;;;41.75;37.53;;;7.50;84.90;;;;;;5006348;28;20126;-65
2024/01/17 03:14:39;;;;;;;43.67;39.55;;;7.40;88.10;;;;;;5001647;28;20107;-65
2024/01/17 03:17:05;;;;;;;45.42;41.35;;;7.40;86.50;;;;;;5006092;28;20042;-65
2024/01/17 03:19:30;;;;;;;48.20;43.50;;;7.50;90.90;;;;;;5009849;28;20065;-65
2024/01/17 03:21:56;;;;;;;46.78;42.08;;;7.30;91.90;;;;;;5006264;28;20076;-66
2024/01/17 03:24:21;;;;;;;47.70;43.22;;;7.30;92.80;;;;;;5004041;28;20160;-66
2024/01/17 03:26:47;;;;;;;46.80;42.25;;;7.50;95.00;;;;;;5018208;28;20077;-65
2024/01/17 03:29:13;;;;;;;39.92;35.72;;;7.30;97.10;;;;;;4999031;28;20454;-65
2024/01/17 03:31:39;;;;;;;46.90;42.40;;;7.60;99.90;;;;;;5026464;28;20037;-65
2024/01/17 03:34:04;;;;;;;43.90;39.33;;;7.50;99.90;;;;;;5017770;28;20095;-66
2024/01/17 03:36:30;;;;;;;43.65;39.22;;;7.40;99.90;;;;;;4988107;28;20037;-65
2024/01/17 03:38:56;;;;;;;50.05;44.63;;;7.60;99.90;;;;;;5006571;28;20054;-65
2024/01/17 03:41:21;;;;;;;47.17;42.15;;;7.60;99.90;;;;;;4992731;28;20049;-65
2024/01/17 03:43:47;;;;;;;46.78;41.95;;;7.30;99.90;;;;;;5005105;28;20106;-65
2024/01/17 03:46:13;;;;;;;43.88;38.55;;;7.60;99.90;;;;;;5023576;28;20319;-65
2024/01/17 03:48:39;;;;;;;49.63;43.60;;;7.30;99.90;;;;;;5022912;28;20034;-65
2024/01/17 03:51:05;;;;;;;49.60;44.33;;;7.30;99.90;;;;;;5022832;28;20049;-66
2024/01/17 03:53:31;;;;;;;52.42;46.55;;;7.60;99.90;;;;;;5008464;28;20041;-65
2024/01/17 03:55:56;;;;;;;47.63;43.00;;;7.50;99.90;;;;;;5027825;28;20099;-65
2024/01/17 03:58:22;;;;;;;48.10;43.20;;;7.50;99.90;;;;;;5028091;28;20084;-66
2024/01/17 04:00:47;;;;;;;48.13;43.28;;;7.80;99.90;;;;;;4992955;28;20060;-66
2024/01/17 04:03:13;;;;;;;54.55;48.83;;;7.50;99.90;;;;;;5002836;28;20152;-66
2024/01/17 04:05:40;;;;;;;53.13;47.60;;;7.80;99.90;;;;;;5016662;28;20081;-66
2024/01/17 04:08:06;;;;;;;50.03;44.63;;;7.60;99.90;;;;;;5020477;28;20157;-66
2024/01/17 04:10:32;;;;;;;235.90;58.53;;;7.70;99.90;;;;;;4993321;28;20124;-65
2024/01/17 04:12:58;;;;;;;51.83;43.72;;;7.70;99.90;;;;;;5008400;28;20038;-66
2024/01/17 04:15:24;;;;;;;52.88;47.25;;;7.60;99.90;;;;;;5026886;28;20096;-65
2024/01/17 04:17:49;;;;;;;56.40;50.03;;;7.80;99.90;;;;;;5009920;28;20041;-65
2024/01/17 04:20:15;;;;;;;51.72;46.72;;;7.80;99.90;;;;;;5009536;28;20045;-65
2024/01/17 04:22:41;;;;;;;55.65;49.85;;;7.70;99.90;;;;;;5026533;28;20041;-65
2024/01/17 04:25:07;;;;;;;51.35;46.25;;;7.60;99.90;;;;;;5023077;28;20051;-65
2024/01/17 04:27:32;;;;;;;55.60;49.40;;;7.30;99.90;;;;;;5007336;28;20042;-65
2024/01/17 04:29:58;;;;;;;51.80;46.90;;;7.30;99.90;;;;;;5007786;28;20080;-65
2024/01/17 04:32:24;;;;;;;55.53;49.67;;;7.50;99.90;;;;;;5009148;28;20043;-66
2024/01/17 04:34:50;;;;;;;54.22;48.20;;;7.20;99.90;;;;;;5026603;28;20037;-65
2024/01/17 04:37:16;;;;;;;54.88;49.75;;;7.30;99.90;;;;;;5006916;28;20049;-65
2024/01/17 04:39:41;;;;;;;49.35;44.65;;;7.30;99.90;;;;;;5009447;28;20154;-65
2024/01/17 04:42:07;;;;;;;51.72;46.60;;;7.30;99.90;;;;;;5009186;28;20056;-65
2024/01/17 04:44:33;;;;;;;49.42;44.33;;;7.40;99.90;;;;;;5008150;28;20061;-66
2024/01/17 04:46:59;;;;;;;73.63;41.42;;;7.30;99.90;;;;;;5026600;28;20120;-65
2024/01/17 04:49:26;;;;;;;46.65;41.88;;;7.30;99.90;;;;;;4992215;28;20038;-65
2024/01/17 04:51:55;;;;;;;53.33;46.83;;;7.20;99.90;;;;;;5004772;28;20168;-65
2024/01/17 04:54:23;;;;;;;54.70;45.03;;;7.40;99.90;;;;;;5026181;28;20414;-65
2024/01/17 04:56:48;;;;;;;54.13;48.38;;;7.10;99.90;;;;;;5027096;28;20034;-65
2024/01/17 04:59:14;;;;;;;49.83;43.65;;;7.00;99.90;;;;;;5027073;28;20103;-65
2024/01/17 05:01:40;;;;;;;51.70;46.30;;;7.10;99.90;;;;;;5007851;28;20053;-65
2024/01/17 05:04:05;;;;;;;46.88;42.10;;;7.40;99.90;;;;;;5007389;28;20041;-65
2024/01/17 05:06:32;;;;;;;51.55;46.20;;;7.10;99.90;;;;;;5008542;28;20106;-65
2024/01/17 05:08:59;;;;;;;53.58;48.60;;;7.10;99.90;;;;;;5009115;28;20069;-65
2024/01/17 05:11:27;;;;;;;59.03;53.25;;;7.10;99.90;;;;;;5009031;28;20083;-65
2024/01/17 05:13:53;;;;;;;56.33;47.85;;;7.30;99.90;;;;;;5021892;28;20088;-65
2024/01/17 05:16:19;;;;;;;50.33;45.40;;;7.40;99.90;;;;;;5026614;28;20495;-66
2024/01/17 05:18:44;;;;;;;50.33;45.38;;;7.40;99.90;;;;;;5026521;28;20041;-66
2024/01/17 05:21:10;;;;;;;51.30;45.85;;;7.10;99.90;;;;;;5008117;28;20048;-66
2024/01/17 05:23:38;;;;;;;52.65;47.28;;;7.40;99.90;;;;;;5026011;28;20036;-65
2024/01/17 05:26:04;;;;;;;45.80;40.78;;;7.40;99.90;;;;;;4990706;28;20050;-65
2024/01/17 05:28:30;;;;;;;50.70;45.53;;;7.40;99.90;;;;;;4988297;28;20050;-65
2024/01/17 05:30:55;;;;;;;48.80;44.00;;;7.20;99.90;;;;;;4996510;28;20406;-65
2024/01/17 05:33:21;;;;;;;48.45;43.47;;;7.30;99.90;;;;;;4991366;28;20144;-65
2024/01/17 05:35:47;;;;;;;55.30;49.42;;;7.10;99.90;;;;;;4996377;28;20041;-65
2024/01/17 05:38:12;;;;;;;50.60;45.50;;;7.20;99.90;;;;;;5006030;28;20056;-65
2024/01/17 05:40:38;;;;;;;54.13;48.50;;;7.20;99.90;;;;;;5011706;28;20041;-65
2024/01/17 05:43:04;;;;;;;51.65;46.60;;;7.20;99.90;;;;;;5007808;28;20467;-65
2024/01/17 05:45:30;;;;;;;51.55;46.55;;;6.90;99.90;;;;;;4999274;28;20141;-65
2024/01/17 05:47:56;;;;;;;53.67;47.58;;;7.10;99.90;;;;;;4988305;28;20046;-65
2024/01/17 05:50:22;;;;;;;53.88;48.70;;;7.20;99.90;;;;;;5009725;28;20045;-66
2024/01/17 05:52:50;;;;;;;58.88;52.97;;;7.20;99.90;;;;;;5007523;28;20518;-66
2024/01/17 05:55:17;;;;;;;53.72;48.58;;;7.30;99.90;;;;;;5018946;28;20038;-66
2024/01/17 05:57:42;;;;;;;51.42;46.53;;;7.00;99.90;;;;;;4997945;28;20179;-66
2024/01/17 06:00:10;;;;;;;56.17;51.38;;;7.30;99.90;;;;;;5025489;28;20160;-66
2024/01/17 06:02:37;;;;;;;58.83;50.70;;;7.20;99.90;;;;;;5008046;28;20053;-65
2024/01/17 06:05:03;;;;;;;57.63;52.03;;;7.20;99.90;;;;;;5002080;28;20129;-66
2024/01/17 06:07:29;;;;;;;60.13;54.28;;;7.60;99.90;;;;;;4987602;28;20162;-66
2024/01/17 06:09:55;;;;;;;56.28;50.78;;;7.40;99.90;;;;;;5005807;28;20121;-65
2024/01/17 06:12:20;;;;;;;62.20;55.90;;;7.20;99.90;;;;;;5024675;28;20519;-66
2024/01/17 06:14:50;;;;;;;53.60;48.13;;;7.40;99.90;;;;;;5017467;28;20052;-66
2024/01/17 06:17:16;;;;;;;58.35;52.45;;;7.30;99.90;;;;;;5019080;28;20045;-66
2024/01/17 06:19:42;;;;;;;60.50;54.28;;;7.20;99.90;;;;;;5024782;28;20439;-66
2024/01/17 06:22:08;;;;;;;65.75;58.75;;;7.40;99.90;;;;;;5004585;28;20132;-66
2024/01/17 06:24:34;;;;;;;64.85;57.60;;;7.50;99.90;;;;;;5023442;28;20064;-66
2024/01/17 06:27:00;;;;;;;57.30;51.03;;;7.20;99.90;;;;;;5022978;28;20038;-66
2024/01/17 06:29:26;;;;;;;70.03;62.85;;;7.30;99.90;;;;;;5006919;28;20041;-66
2024/01/17 06:31:53;;;;;;;59.58;53.60;;;7.20;99.90;;;;;;5006659;28;20056;-66
2024/01/17 06:34:19;;;;;;;56.67;49.90;;;7.40;99.90;;;;;;5000455;28;20512;-66
2024/01/17 06:36:44;;;;;;;54.20;48.97;;;7.50;99.90;;;;;;5020578;28;20135;-66
2024/01/17 06:39:13;;;;;;;58.50;52.75;;;7.20;99.90;;;;;;5007273;28;20414;-66
2024/01/17 06:41:38;;;;;;;54.28;48.05;;;7.20;99.90;;;;;;5007055;28;20049;-66
2024/01/17 06:44:04;;;;;;;58.63;52.80;;;7.40;99.90;;;;;;5005376;28;20111;-66
2024/01/17 06:46:30;;;;;;;53.33;47.55;;;7.30;99.90;;;;;;5007649;28;20129;-66
2024/01/17 06:48:56;;;;;;;56.53;49.47;;;7.20;99.90;;;;;;5010872;28;20431;-66
2024/01/17 06:51:22;;;;;;;53.85;48.40;;;7.60;99.90;;;;;;5009866;28;20041;-66
2024/01/17 06:53:47;;;;;;;63.30;57.00;;;7.40;99.90;;;;;;5027370;28;20038;-66
2024/01/17 06:56:13;;;;;;;68.38;61.53;;;7.40;99.90;;;;;;4994226;28;20079;-66
2024/01/17 06:58:38;;;;;;;68.60;61.88;;;7.20;99.90;;;;;;5009952;28;20041;-66
2024/01/17 07:01:04;;;;;;;64.20;57.33;;;7.30;99.90;;;;;;5009680;28;20045;-66
2024/01/17 07:03:30;;;;;;;63.00;56.20;;;7.30;99.90;;;;;;5009642;28;20083;-66
2024/01/17 07:05:55;;;;;;;76.97;69.80;;;7.20;99.90;;;;;;5027432;28;20034;-66
2024/01/17 07:08:21;;;;;;;80.40;72.45;;;7.30;99.90;;;;;;5010063;28;20088;-66
2024/01/17 07:10:46;;;;;;;67.95;61.28;;;7.20;99.90;;;;;;5008831;28;20064;-67
2024/01/17 07:13:12;;;;;;;59.60;53.63;;;6.90;99.90;;;;;;5026425;28;20049;-67
2024/01/17 07:15:38;;;;;;;68.32;60.97;;;7.10;99.90;;;;;;5008763;28;20061;-66
2024/01/17 07:18:03;;;;;;;53.83;48.28;;;7.00;99.90;;;;;;5021018;28;20034;-66
2024/01/17 07:20:29;;;;;;;53.75;48.58;;;7.00;99.90;;;;;;5017568;28;20409;-66
2024/01/17 07:22:55;;;;;;;56.05;49.95;;;7.10;99.90;;;;;;5003727;28;20046;-66
2024/01/17 07:25:21;;;;;;;57.90;51.78;;;7.60;99.90;;;;;;5005542;28;20121;-66
2024/01/17 07:27:47;;;;;;;66.25;58.85;;;7.20;99.90;;;;;;5018829;28;20496;-66
2024/01/17 07:30:14;;;;;;;57.47;51.78;;;6.90;99.90;;;;;;5005522;28;20037;-66
2024/01/17 07:32:40;;;;;;;55.88;49.45;;;7.10;99.90;;;;;;5002069;28;20050;-66
2024/01/17 07:35:06;;;;;;;58.72;52.78;;;6.90;99.90;;;;;;5019313;28;20384;-66
2024/01/17 07:37:32;;;;;;;51.67;46.58;;;7.20;99.90;;;;;;5021135;28;20422;-66
2024/01/17 07:39:59;;;;;;;48.72;43.70;;;6.90;99.90;;;;;;4999044;28;20041;-66
2024/01/17 07:42:25;;;;;;;51.75;46.88;;;7.00;99.90;;;;;;5018528;28;20344;-66
2024/01/17 07:44:50;;;;;;;52.63;47.83;;;7.20;99.90;;;;;;5003399;28;20049;-68
2024/01/17 07:47:16;;;;;;;47.58;43.30;;;7.00;99.90;;;;;;5021878;28;20080;-66
2024/01/17 07:49:42;;;;;;;50.78;46.13;;;7.20;99.90;;;;;;5020137;28;20441;-67
2024/01/17 07:52:08;;;;;;;62.13;56.47;;;7.20;99.90;;;;;;5005901;28;20383;-67
2024/01/17 07:54:34;;;;;;;54.53;48.80;;;7.30;99.90;;;;;;5006102;28;20041;-66
2024/01/17 07:56:59;;;;;;;58.40;52.85;;;7.20;99.90;;;;;;5002369;28;20129;-67
2024/01/17 07:59:28;;;;;;;48.67;43.58;;;7.20;99.90;;;;;;5001660;28;20049;-67
2024/01/17 08:01:55;;;;;;;49.90;44.95;;;7.40;99.90;;;;;;5001433;28;20064;-67
2024/01/17 08:04:21;;;;;;;49.97;45.15;;;7.30;99.90;;;;;;5004405;28;20128;-67
2024/01/17 08:06:47;;;;;;;60.83;54.33;;;7.20;99.90;;;;;;5002184;28;20538;-67
2024/01/17 08:09:23;;;;;;;48.35;43.50;;;7.20;99.90;;;;;;5000949;28;20045;-67
2024/01/17 08:11:54;;;;;;;57.25;51.00;;;7.30;99.90;;;;;;4997433;28;20140;-66
2024/01/17 08:14:20;;;;;;;51.15;45.95;;;7.00;99.90;;;;;;5000058;28;20116;-67
2024/01/17 08:16:47;;;;;;;56.65;50.67;;;7.30;99.90;;;;;;5005139;28;20091;-67
2024/01/17 08:19:13;;;;;;;54.65;49.15;;;7.30;99.90;;;;;;5004277;28;20797;-68
2024/01/17 08:21:38;;;;;;;59.35;53.40;;;7.20;99.90;;;;;;5002985;28;20045;-67
2024/01/17 08:24:04;;;;;;;53.78;48.75;;;7.20;99.90;;;;;;5004628;28;20054;-66
2024/01/17 08:26:30;;;;;;;57.00;51.28;;;7.50;99.90;;;;;;5002369;28;20045;-67
2024/01/17 08:28:56;;;;;;;55.50;50.38;;;7.20;99.90;;;;;;5002118;28;20406;-67
2024/01/17 08:31:22;;;;;;;59.38;53.45;;;6.90;99.90;;;;;;5022652;28;20518;-67
2024/01/17 08:33:49;;;;;;;53.80;48.20;;;7.10;99.90;;;;;;5004024;28;20156;-67
2024/01/17 08:36:15;;;;;;;140.40;54.28;;;7.20;99.90;;;;;;5002138;28;20064;-67
2024/01/17 08:38:41;;;;;;;52.65;47.22;;;7.30;99.90;;;;;;5001841;28;20046;-67
2024/01/17 08:41:07;;;;;;;50.88;45.55;;;7.30;99.90;;;;;;5020543;28;20037;-67
2024/01/17 08:43:33;;;;;;;56.65;51.28;;;7.00;99.90;;;;;;5002416;28;20586;-67
2024/01/17 08:46:03;;;;;;;54.53;49.33;;;6.90;99.90;;;;;;5001937;28;20055;-67
2024/01/17 08:48:29;;;;;;;59.90;53.70;;;6.80;99.90;;;;;;5001108;28;20049;-67
2024/01/17 08:50:56;;;;;;;56.00;49.97;;;7.00;99.90;;;;;;5004453;28;20521;-67
2024/01/17 08:53:22;;;;;;;63.45;56.85;;;7.00;99.90;;;;;;5003866;28;20046;-67
2024/01/17 08:55:48;;;;;;;62.60;53.65;;;7.20;99.90;;;;;;4985788;28;20077;-67
2024/01/17 08:58:13;;;;;;;57.28;51.72;;;7.10;99.90;;;;;;4998869;28;20099;-67
2024/01/17 09:00:39;;;;;;;55.28;49.58;;;6.90;99.90;;;;;;5020826;28;20049;-67
2024/01/17 09:03:04;;;;;;;56.95;51.47;;;6.90;99.90;;;;;;5018358;28;20041;-67
2024/01/17 09:05:30;;;;;;;56.75;48.33;;;6.90;99.90;;;;;;4999893;28;20129;-67
2024/01/17 09:07:57;;;;;;;60.40;54.17;;;6.90;99.90;;;;;;5000168;28;20566;-67
2024/01/17 09:10:23;;;;;;;59.22;53.20;;;7.00;99.90;;;;;;5000560;28;20045;-67
2024/01/17 09:12:50;;;;;;;63.20;55.63;;;7.20;99.90;;;;;;4995117;28;20100;-67
2024/01/17 09:15:16;;;;;;;53.05;45.00;;;7.20;99.90;;;;;;4998334;28;20038;-66
2024/01/17 09:17:42;;;;;;;57.83;51.58;;;7.10;99.90;;;;;;5013396;28;20464;-67
2024/01/17 09:20:08;;;;;;;56.00;50.13;;;7.40;99.90;;;;;;5003154;28;20133;-67
2024/01/17 09:22:34;;;;;;;54.22;48.58;;;7.30;99.90;;;;;;5002124;28;20041;-67
2024/01/17 09:25:02;;;;;;;55.92;49.22;;;7.10;99.90;;;;;;5020900;28;20038;-67
2024/01/17 09:27:28;;;;;;;54.55;49.25;;;7.00;99.90;;;;;;5018024;28;20041;-67
2024/01/17 09:29:54;;;;;;;55.88;50.20;;;7.20;99.90;;;;;;5000251;28;20045;-67
2024/01/17 09:32:20;;;;;;;53.70;47.65;;;7.00;99.90;;;;;;5020372;28;20683;-67
2024/01/17 09:34:47;;;;;;;52.22;47.03;;;7.30;99.90;;;;;;5018253;28;20113;-67
2024/01/17 09:37:17;;;;;;;65.13;58.08;;;7.10;99.90;;;;;;4998053;28;20045;-67
2024/01/17 09:39:43;;;;;;;57.13;51.17;;;7.10;99.90;;;;;;5001058;28;20067;-67
2024/01/17 09:42:09;;;;;;;64.18;58.00;;;7.40;99.90;;;;;;4997677;28;20088;-67
2024/01/17 09:44:35;;;;;;;55.95;50.53;;;7.30;99.90;;;;;;4996962;28;20535;-67
2024/01/17 09:47:03;;;;;;;62.30;55.78;;;7.40;99.90;;;;;;5018561;28;20041;-67
2024/01/17 09:49:29;;;;;;;61.33;55.33;;;7.20;99.90;;;;;;5015514;28;20064;-67
2024/01/17 09:51:55;;;;;;;57.92;52.47;;;7.20;99.90;;;;;;4998656;28;20563;-67
2024/01/17 09:54:25;;;;;;;53.45;48.05;;;7.20;99.90;;;;;;4997341;28;20163;-67
2024/01/17 09:56:51;;;;;;;50.55;45.45;;;7.30;99.90;;;;;;5000988;28;20814;-67
2024/01/17 09:59:25;;;;;;;46.28;41.70;;;7.40;99.90;;;;;;4995118;28;20045;-67
2024/01/17 10:01:50;;;;;;;57.88;51.55;;;7.30;99.90;;;;;;5019752;28;20067;-67
2024/01/17 10:04:19;;;;;;;55.67;47.50;;;7.30;99.90;;;;;;4994805;28;20034;-67
2024/01/17 10:06:47;;;;;;;55.58;49.03;;;7.40;99.90;;;;;;4998941;28;20048;-67
2024/01/17 10:09:14;;;;;;;51.17;45.78;;;7.40;99.90;;;;;;4997228;28;20191;-67
2024/01/17 10:11:40;;;;;;;52.60;47.20;;;7.30;99.90;;;;;;5020428;28;20042;-67
2024/01/17 10:14:05;;;;;;;54.53;47.55;;;7.30;99.90;;;;;;5000228;28;20503;-67
2024/01/17 10:16:31;;;;;;;55.92;49.58;;;7.20;99.90;;;;;;5017310;28;20118;-67
2024/01/17 10:18:59;;;;;;;59.03;52.25;;;7.20;99.90;;;;;;5014992;28;20511;-67
2024/01/17 10:21:25;;;;;;;64.10;49.40;;;7.30;99.90;;;;;;4986656;28;20064;-67
2024/01/17 10:23:51;;;;;;;57.70;51.72;;;7.50;99.90;;;;;;5016657;28;20037;-67
2024/01/17 10:26:16;;;;;;;54.05;47.20;;;7.50;99.90;;;;;;5020832;28;20049;-67
2024/01/17 10:28:45;;;;;;;60.20;53.72;;;7.30;99.90;;;;;;4999605;28;20049;-67
2024/01/17 10:31:11;;;;;;;61.47;55.05;;;7.50;99.90;;;;;;4998835;28;20038;-67
2024/01/17 10:33:38;;;;;;;55.55;47.45;;;7.50;99.90;;;;;;5002052;28;20414;-67
2024/01/17 10:36:05;;;;;;;56.97;50.78;;;7.20;99.90;;;;;;5002324;28;20053;-67
2024/01/17 10:38:31;;;;;;;58.60;52.38;;;7.20;99.90;;;;;;5000210;28;20050;-67
2024/01/17 10:41:05;;;;;;;53.15;47.85;;;7.20;99.90;;;;;;5002367;28;20056;-67
2024/01/17 10:43:31;;;;;;;56.42;50.72;;;7.20;99.90;;;;;;4999790;28;20139;-67
2024/01/17 10:45:56;;;;;;;52.95;43.70;;;7.40;99.90;;;;;;4998303;28;20050;-67
2024/01/17 10:48:25;;;;;;;61.90;48.97;;;7.10;99.90;;;;;;4979434;28;20122;-67
2024/01/17 10:50:57;;;;;;;54.58;48.30;;;9.10;99.90;;;;;;4996397;28;20049;-67
2024/01/17 10:53:24;;;;;;;56.60;50.78;;;7.00;99.90;;;;;;4999266;28;20770;-66
2024/01/17 10:55:53;;;;;;;57.40;49.58;;;7.00;99.90;;;;;;4995867;28;20057;-67
2024/01/17 10:58:20;;;;;;;62.08;54.47;;;7.00;99.90;;;;;;4997079;28;20054;-67
2024/01/17 11:00:48;;;;;;;60.72;54.15;;;7.10;99.90;;;;;;4999433;28;20076;-67
2024/01/17 11:03:19;;;;;;;58.50;51.00;;;7.10;99.90;;;;;;4996587;28;20046;-66
2024/01/17 11:05:49;;;;;;;62.70;53.63;;;7.20;99.90;;;;;;4999932;28;20053;-67
2024/01/17 11:08:16;;;;;;;63.60;51.47;;;7.00;99.90;;;;;;4998479;28;20129;-66
2024/01/17 11:10:44;;;;;;;58.88;50.63;;;7.10;99.90;;;;;;4996240;28;20046;-66
2024/01/17 11:13:14;;;;;;;62.20;55.20;;;6.90;99.90;;;;;;5001664;28;20531;-67
2024/01/17 11:15:43;;;;;;;62.80;52.65;;;6.90;99.90;;;;;;4996879;28;20073;-67
2024/01/17 11:18:12;;;;;;;68.00;58.47;;;6.90;99.90;;;;;;4994141;28;20046;-66
2024/01/17 11:20:42;;;;;;;60.83;52.58;;;7.10;99.90;;;;;;4997401;28;20521;-66
2024/01/17 11:23:09;;;;;;;64.05;55.13;;;6.90;99.90;;;;;;4998025;28;20057;-67
2024/01/17 11:25:50;;;;;;;71.53;56.03;;;7.10;99.90;;;;;;4996904;28;20038;-66
2024/01/17 11:28:25;;;;;;;65.22;58.38;;;7.40;99.90;;;;;;4995403;28;20110;-67
2024/01/17 11:31:32;;;;;;;72.35;65.22;;;7.50;99.90;;;;;;4996416;28;20045;-67
2024/01/17 11:33:58;;;;;;;65.55;58.42;;;7.30;99.90;;;;;;4873322;29;20043;-67
2024/01/17 11:36:44;;;;;;;61.47;54.78;;;7.20;99.90;;;;;;4980951;28;20388;-67
2024/01/17 11:39:12;;;;;;;65.05;57.70;;;7.10;99.90;;;;;;4998762;28;20104;-67
2024/01/17 11:41:38;;;;;;;62.72;55.90;;;7.30;99.90;;;;;;4980822;28;20411;-67
2024/01/17 11:44:08;;;;;;;63.42;56.70;;;7.20;99.90;;;;;;4998106;28;20066;-67
2024/01/17 11:46:34;;;;;;;71.68;59.58;;;7.20;99.90;;;;;;4998989;28;20053;-67
2024/01/17 11:49:00;;;;;;;66.68;56.63;;;7.00;99.90;;;;;;4994263;28;20042;-67
2024/01/17 11:51:26;;;;;;;62.40;54.08;;;6.90;99.90;;;;;;5000556;28;20592;-67
2024/01/17 11:53:54;;;;;;;62.03;53.10;;;7.20;99.90;;;;;;4982943;28;20049;-67
2024/01/17 11:56:20;;;;;;;63.88;56.28;;;7.30;99.90;;;;;;4997339;28;20491;-67
2024/01/17 11:58:57;;;;;;;64.22;56.20;;;7.10;99.90;;;;;;4998053;28;20144;-67
2024/01/17 12:01:22;;;;;;;63.40;55.17;;;7.30;99.90;;;;;;4998062;28;20042;-67
2024/01/17 12:03:49;;;;;;;63.53;55.78;;;7.30;99.90;;;;;;5002082;28;20566;-67
2024/01/17 12:06:16;;;;;;;70.20;59.47;;;7.20;99.90;;;;;;4998750;28;20431;-67
2024/01/17 12:08:41;;;;;;;66.45;55.70;;;7.30;99.90;;;;;;4998148;28;20076;-67
2024/01/17 12:11:08;;;;;;;64.13;57.08;;;7.20;99.90;;;;;;4999241;28;20042;-67
2024/01/17 12:13:36;;;;;;;71.85;59.58;;;7.30;99.90;;;;;;5001525;28;20449;-67
2024/01/17 12:16:02;;;;;;;62.70;55.70;;;7.10;99.90;;;;;;5001552;28;20056;-67
2024/01/17 12:18:28;;;;;;;69.63;58.25;;;7.30;99.90;;;;;;4999577;28;20045;-67
2024/01/17 12:20:54;;;;;;;67.13;56.95;;;7.30;99.90;;;;;;5001228;28;20404;-67
2024/01/17 12:23:24;;;;;;;64.20;54.72;;;7.40;99.90;;;;;;5001213;28;20062;-67
2024/01/17 12:25:52;;;;;;;62.75;55.80;;;7.40;99.90;;;;;;5000045;28;20048;-67
2024/01/17 12:28:19;;;;;;;67.03;57.85;;;7.20;99.90;;;;;;4981052;28;20042;-67
2024/01/17 12:30:59;;;;;;;69.03;56.65;;;7.50;99.90;;;;;;4996170;28;20043;-67
2024/01/17 12:33:31;;;;;;;64.60;57.63;;;7.20;99.90;;;;;;5002651;28;20540;-67
2024/01/17 12:36:00;;;;;;;69.75;59.67;;;7.50;99.90;;;;;;5220126;22;20057;-64